Time;durP1;ratioP1;P1;durP2;ratioP2;P2;SDS_P1;SDS_P2;PMS_P1;PMS_P2;Temp;Humidity;BMP_temperature;BMP_pressure;BME280_temperature;BME280_humidity;BME280_pressure;Samples;Min_cycle;Max_cycle;Signal;HPM_P1;HPM_P2
2023/01/22 00:00:02;;;;;;;8.70;4.78;;;;;;;5.47;59.48;99841.25;5268649;27;20049;-93
2023/01/22 00:02:27;;;;;;;7.93;4.37;;;;;;;5.57;59.49;99848.87;5267780;27;20353;-92
2023/01/22 00:04:53;;;;;;;7.03;4.60;;;;;;;5.49;59.48;99861.88;5266177;27;20060;-92
2023/01/22 00:07:18;;;;;;;7.30;4.28;;;;;;;5.57;59.49;99849.75;5267677;27;20104;-92
2023/01/22 00:09:44;;;;;;;6.87;3.95;;;;;;;5.41;59.48;99856.75;5267686;27;20057;-93
2023/01/22 00:12:09;;;;;;;6.35;3.85;;;;;;;5.71;59.50;99854.78;5267948;27;20065;-92
2023/01/22 00:14:39;;;;;;;8.90;3.95;;;;;;;5.59;59.49;99857.47;5267816;27;20155;-92
2023/01/22 00:17:04;;;;;;;7.87;4.35;;;;;;;5.53;59.47;99859.25;5267923;27;20036;-92
2023/01/22 00:19:30;;;;;;;8.15;4.07;;;;;;;5.51;59.48;99852.38;5267592;27;20102;-93
2023/01/22 00:21:55;;;;;;;6.57;3.85;;;;;;;5.50;59.49;99859.28;5267609;27;20187;-92
2023/01/22 00:24:21;;;;;;;6.18;4.18;;;;;;;5.45;59.48;99866.22;5285934;27;20143;-92
2023/01/22 00:26:52;;;;;;;7.68;4.43;;;;;;;5.44;59.48;99866.19;5267768;27;20061;-92
2023/01/22 00:29:21;;;;;;;7.15;3.97;;;;;;;5.48;59.48;99875.66;5267481;27;20025;-93
2023/01/22 00:31:46;;;;;;;8.82;4.12;;;;;;;5.46;59.48;99874.81;5267593;27;20064;-93
2023/01/22 00:34:12;;;;;;;7.10;4.45;;;;;;;5.53;59.49;99869.56;5267664;27;20409;-92
2023/01/22 00:36:39;;;;;;;8.68;4.40;;;;;;;5.57;59.49;99875.56;5267838;27;20113;-92
2023/01/22 00:39:05;;;;;;;10.85;4.95;;;;;;;5.41;59.48;99868.81;5267717;27;20025;-92
2023/01/22 00:41:33;;;;;;;10.48;5.10;;;;;;;5.53;59.49;99877.31;5285822;27;20057;-92
2023/01/22 00:43:59;;;;;;;12.32;6.12;;;;;;;5.49;59.48;99874.78;5285466;27;20079;-92
2023/01/22 00:46:24;;;;;;;11.98;6.87;;;;;;;5.34;59.47;99870.59;5267467;27;20060;-92
2023/01/22 00:48:50;;;;;;;11.80;6.25;;;;;;;5.62;59.49;99873.78;5267875;27;20068;-92
2023/01/22 00:51:15;;;;;;;9.88;5.32;;;;;;;5.62;59.50;99875.50;5267810;27;20112;-93
2023/01/22 00:53:42;;;;;;;9.18;4.87;;;;;;;5.79;59.50;99878.78;5267719;27;20099;-92
2023/01/22 00:56:08;;;;;;;12.05;5.70;;;;;;;5.66;59.48;99872.88;5267835;27;20057;-92
2023/01/22 00:58:34;;;;;;;10.43;5.55;;;;;;;5.58;59.49;99881.56;5267811;27;20051;-93
2023/01/22 01:01:02;;;;;;;12.32;6.07;;;;;;;5.39;59.48;99879.16;5267621;27;20083;-92
2023/01/22 01:03:30;;;;;;;10.50;5.80;;;;;;;5.42;59.48;99883.44;5268407;27;20069;-93
2023/01/22 01:06:15;;;;;;;11.25;5.95;;;;;;;5.54;59.47;99883.34;5268160;27;20045;-92
2023/01/22 01:08:41;;;;;;;10.25;5.82;;;;;;;5.71;59.50;99888.34;5270230;27;20108;-92
2023/01/22 01:11:10;;;;;;;8.85;5.53;;;;;;;5.83;59.51;99881.31;5267931;27;20409;-91
2023/01/22 01:13:40;;;;;;;10.90;5.40;;;;;;;5.61;59.48;99884.13;5267937;27;20064;-92
2023/01/22 01:16:13;;;;;;;9.38;5.22;;;;;;;5.33;59.48;99886.13;5268437;27;20029;-93
2023/01/22 01:18:38;;;;;;;9.32;4.85;;;;;;;5.50;59.48;99879.94;5286511;27;20774;-92
2023/01/22 01:21:06;;;;;;;7.18;4.00;;;;;;;5.43;59.48;99880.84;5267437;27;20072;-93
2023/01/22 01:23:31;;;;;;;8.40;4.20;;;;;;;5.59;59.49;99888.44;5268300;27;20114;-92
2023/01/22 01:25:57;;;;;;;6.32;3.80;;;;;;;5.73;59.49;99887.47;5267365;27;20053;-93
2023/01/22 01:28:23;;;;;;;8.57;4.70;;;;;;;5.59;59.49;99884.16;5267526;27;20064;-93
2023/01/22 01:30:49;;;;;;;8.40;4.45;;;;;;;5.56;59.49;99891.91;5266397;27;20076;-93
2023/01/22 01:33:14;;;;;;;6.32;3.72;;;;;;;5.77;59.50;99888.28;5267639;27;20065;-93
2023/01/22 01:35:40;;;;;;;6.12;3.47;;;;;;;5.76;59.50;99890.00;5267659;27;20097;-92
2023/01/22 01:38:05;;;;;;;7.43;3.65;;;;;;;5.91;59.51;99896.75;5267425;27;20151;-93
2023/01/22 01:40:31;;;;;;;6.78;3.80;;;;;;;5.76;59.49;99902.06;5267420;27;20069;-93
2023/01/22 01:42:56;;;;;;;6.62;3.72;;;;;;;5.79;59.50;99896.88;5267072;27;20061;-92
2023/01/22 01:45:32;;;;;;;7.07;4.00;;;;;;;5.66;59.49;99897.84;5267413;27;20108;-93
2023/01/22 01:48:24;;;;;;;6.60;3.70;;;;;;;5.65;59.49;99902.16;5267446;27;20087;-93
2023/01/22 01:51:22;;;;;;;7.18;3.60;;;;;;;5.95;59.51;99900.19;5287141;27;20025;-93
2023/01/22 01:53:48;;;;;;;6.45;3.30;;;;;;;5.85;59.51;99894.22;5264755;27;20130;-93
2023/01/22 01:56:22;;;;;;;7.35;3.55;;;;;;;5.92;59.51;99885.56;5267753;27;20049;-93
2023/01/22 01:58:47;;;;;;;6.10;3.40;;;;;;;5.87;59.50;99884.72;5268017;27;20049;-92
2023/01/22 02:01:15;;;;;;;5.35;2.70;;;;;;;5.93;59.51;99881.25;5267063;27;20060;-93
2023/01/22 02:03:41;;;;;;;7.03;3.83;;;;;;;5.78;59.50;99883.09;5267758;27;20079;-93
2023/01/22 02:06:17;;;;;;;7.65;3.08;;;;;;;5.72;59.49;99875.41;5267059;27;20068;-93
2023/01/22 02:08:44;;;;;;;6.70;3.75;;;;;;;5.59;59.49;99891.88;5269549;27;20029;-93
2023/01/22 02:11:09;;;;;;;8.25;4.05;;;;;;;5.81;59.50;99885.63;5270003;27;20064;-92
2023/01/22 02:13:35;;;;;;;6.78;3.53;;;;;;;5.75;59.50;99875.38;5268298;27;20113;-92
2023/01/22 02:16:00;;;;;;;6.30;3.30;;;;;;;5.65;59.49;99878.06;5268161;27;20317;-92
2023/01/22 02:18:26;;;;;;;6.95;3.55;;;;;;;5.66;59.49;99877.19;5267962;27;20107;-93
2023/01/22 02:20:56;;;;;;;4.93;3.12;;;;;;;5.55;59.49;99883.31;5268205;27;20413;-93
2023/01/22 02:23:21;;;;;;;6.15;3.85;;;;;;;5.60;59.48;99872.94;5268851;27;20132;-92
2023/01/22 02:25:47;;;;;;;6.35;3.17;;;;;;;5.54;59.49;99875.59;5268252;27;20080;-92
2023/01/22 02:28:12;;;;;;;6.60;3.70;;;;;;;5.59;59.49;99873.81;5268326;27;20061;-93
2023/01/22 02:30:38;;;;;;;5.70;3.20;;;;;;;5.37;59.47;99872.31;5268175;27;20417;-92
2023/01/22 02:33:03;;;;;;;6.03;3.00;;;;;;;5.49;59.49;99877.38;5286438;27;20064;-92
2023/01/22 02:35:29;;;;;;;6.32;2.95;;;;;;;5.44;59.48;99872.25;5268235;27;20060;-93
2023/01/22 02:37:54;;;;;;;5.35;3.10;;;;;;;5.57;59.49;99874.69;5268296;27;20104;-92
2023/01/22 02:40:19;;;;;;;5.22;2.85;;;;;;;5.48;59.48;99878.25;5268318;27;20098;-92
2023/01/22 02:42:45;;;;;;;5.80;3.00;;;;;;;5.47;59.48;99872.22;5268333;27;20099;-92
2023/01/22 02:45:10;;;;;;;6.35;2.90;;;;;;;5.19;59.47;99869.00;5268160;27;20295;-92
2023/01/22 02:47:36;;;;;;;6.00;3.03;;;;;;;5.34;59.47;99867.16;5268191;27;20057;-92
2023/01/22 02:50:02;;;;;;;6.00;2.92;;;;;;;5.26;59.47;99869.84;5268055;27;20146;-91
2023/01/22 02:52:27;;;;;;;5.28;2.80;;;;;;;5.08;59.45;99865.66;5268386;27;20064;-92
2023/01/22 02:54:53;;;;;;;4.03;2.22;;;;;;;5.16;59.47;99858.72;5268114;27;20098;-92
2023/01/22 02:57:18;;;;;;;3.97;2.37;;;;;;;5.18;59.47;99872.44;5268012;27;20064;-92
2023/01/22 02:59:44;;;;;;;3.87;2.40;;;;;;;5.02;59.46;99868.31;5268264;27;20075;-92
2023/01/22 03:02:09;;;;;;;6.40;2.95;;;;;;;4.85;59.44;99868.41;5268122;27;20064;-92
2023/01/22 03:04:35;;;;;;;3.70;1.90;;;;;;;4.79;59.45;99863.31;5268230;27;20105;-92
2023/01/22 03:07:00;;;;;;;4.60;2.67;;;;;;;4.98;59.45;99866.63;5267989;27;20092;-92
2023/01/22 03:09:26;;;;;;;4.12;2.42;;;;;;;4.92;59.45;99858.91;5268234;27;20110;-92
2023/01/22 03:11:51;;;;;;;3.90;2.12;;;;;;;4.85;59.44;99857.25;5268383;27;20484;-92
2023/01/22 03:22:29;;;;;;;6.32;3.40;;;;;;;4.75;59.44;99847.87;5294524;27;20074;-91
2023/01/22 03:24:57;;;;;;;6.93;3.90;;;;;;;4.70;59.44;99844.44;5268704;27;20091;-92
2023/01/22 03:27:24;;;;;;;6.30;3.62;;;;;;;4.71;59.43;99853.91;5268982;27;20644;-91
2023/01/22 03:29:49;;;;;;;7.93;3.67;;;;;;;4.69;59.44;99846.16;5267693;27;20090;-92
2023/01/22 03:32:14;;;;;;;5.55;3.08;;;;;;;4.59;59.43;99847.09;5268060;27;20086;-92
2023/01/22 03:34:40;;;;;;;6.25;3.47;;;;;;;4.63;59.43;99851.38;5268104;27;20061;-91
2023/01/22 03:37:06;;;;;;;6.78;3.62;;;;;;;4.70;59.43;99847.87;5267887;27;20118;-91
2023/01/22 03:39:31;;;;;;;5.53;3.33;;;;;;;4.83;59.45;99857.25;5267997;27;20084;-92
2023/01/22 03:41:57;;;;;;;6.97;3.30;;;;;;;4.67;59.44;99847.91;5268040;27;20078;-91
2023/01/22 03:44:22;;;;;;;6.45;3.50;;;;;;;4.89;59.45;99851.19;5267567;27;20064;-92
2023/01/22 03:46:48;;;;;;;6.28;3.22;;;;;;;4.80;59.45;99848.69;5267985;27;20085;-92
2023/01/22 03:49:13;;;;;;;6.30;3.05;;;;;;;4.70;59.44;99847.87;5267854;27;20072;-91
2023/01/22 03:51:39;;;;;;;6.93;3.12;;;;;;;4.58;59.43;99845.41;5269896;27;20064;-92
2023/01/22 03:54:04;;;;;;;6.03;3.40;;;;;;;4.87;59.45;99845.19;5269037;27;20060;-92
2023/01/22 03:56:30;;;;;;;6.87;3.62;;;;;;;4.85;59.44;99849.50;5268475;27;20057;-92
2023/01/22 03:58:55;;;;;;;7.03;3.60;;;;;;;4.76;59.44;99857.31;5269227;27;20096;-92
2023/01/22 04:01:23;;;;;;;7.43;3.12;;;;;;;4.71;59.43;99846.16;5268061;27;20115;-92
2023/01/22 04:03:49;;;;;;;6.07;3.03;;;;;;;4.77;59.44;99853.88;5268344;27;20914;-91
2023/01/22 04:06:15;;;;;;;9.20;4.10;;;;;;;4.60;59.43;99854.84;5268426;27;20065;-92
2023/01/22 04:08:41;;;;;;;7.90;3.67;;;;;;;4.82;59.45;99854.69;5267649;27;20075;-91
2023/01/22 04:11:07;;;;;;;6.57;3.83;;;;;;;4.67;59.44;99855.63;5267839;27;20068;-92
2023/01/22 04:13:33;;;;;;;6.75;3.67;;;;;;;4.76;59.45;99854.75;5267783;27;20369;-92
2023/01/22 04:15:58;;;;;;;9.82;3.40;;;;;;;4.91;59.45;99858.03;5267794;27;20057;-91
2023/01/22 04:18:24;;;;;;;7.37;3.62;;;;;;;4.92;59.45;99858.91;5268084;27;20314;-91
2023/01/22 04:20:50;;;;;;;5.43;2.85;;;;;;;4.76;59.44;99852.16;5267803;27;20068;-91
2023/01/22 04:23:16;;;;;;;6.72;3.47;;;;;;;4.69;59.44;99851.31;5267905;27;20048;-92
2023/01/22 04:25:42;;;;;;;4.97;3.20;;;;;;;4.85;59.45;99852.94;5267759;27;20053;-92
2023/01/22 04:28:09;;;;;;;6.87;3.45;;;;;;;4.74;59.44;99859.06;5267754;27;20068;-91
2023/01/22 04:30:35;;;;;;;10.57;4.53;;;;;;;4.72;59.45;99848.72;5268510;27;20068;-91
2023/01/22 04:33:01;;;;;;;13.30;5.28;;;;;;;4.68;59.44;99849.63;5267682;27;20061;-91
2023/01/22 04:35:26;;;;;;;10.13;5.12;;;;;;;4.63;59.43;99859.97;5267938;27;20393;-91
2023/01/22 04:37:51;;;;;;;8.23;3.72;;;;;;;4.62;59.43;99865.13;5285920;27;20068;-91
2023/01/22 04:40:17;;;;;;;6.32;3.80;;;;;;;4.67;59.44;99855.63;5267596;27;20079;-92
2023/01/22 04:42:42;;;;;;;7.35;3.83;;;;;;;4.65;59.44;99859.97;5267426;27;20052;-92
2023/01/22 04:45:08;;;;;;;5.07;2.78;;;;;;;4.78;59.44;99851.28;5263718;27;20061;-91
2023/01/22 04:47:34;;;;;;;4.28;2.95;;;;;;;4.63;59.44;99856.53;5264261;27;20069;-91
2023/01/22 04:49:59;;;;;;;5.07;2.72;;;;;;;4.66;59.44;99851.34;5263797;27;20068;-91
2023/01/22 04:52:25;;;;;;;7.05;3.83;;;;;;;4.66;59.44;99855.66;5263935;27;20071;-91
2023/01/22 04:54:51;;;;;;;5.68;3.37;;;;;;;4.67;59.44;99857.38;5264131;27;20091;-91
2023/01/22 04:57:16;;;;;;;5.80;3.12;;;;;;;4.77;59.44;99857.31;5264079;27;20089;-91
2023/01/22 04:59:42;;;;;;;6.35;3.22;;;;;;;4.76;59.44;99859.91;5264102;27;20084;-91
2023/01/22 05:02:07;;;;;;;5.82;3.55;;;;;;;4.63;59.43;99854.81;5264169;27;20079;-91
2023/01/22 05:04:33;;;;;;;8.05;3.95;;;;;;;4.61;59.44;99858.25;5263868;27;20045;-91
2023/01/22 05:06:58;;;;;;;6.22;3.75;;;;;;;4.90;59.45;99851.19;5263781;27;20366;-91
2023/01/22 05:09:24;;;;;;;8.02;4.10;;;;;;;4.81;59.45;99861.56;5263991;27;20065;-91
2023/01/22 05:11:50;;;;;;;5.97;3.08;;;;;;;4.88;59.46;99862.38;5263912;27;20756;-91
2023/01/22 05:14:15;;;;;;;6.47;3.70;;;;;;;4.91;59.45;99873.53;5263903;27;20101;-91
2023/01/22 05:16:41;;;;;;;5.57;3.55;;;;;;;5.05;59.46;99868.28;5264131;27;20398;-90
2023/01/22 05:19:06;;;;;;;6.37;3.05;;;;;;;4.88;59.45;99877.84;5264307;27;20432;-91
2023/01/22 05:21:32;;;;;;;7.37;3.78;;;;;;;5.03;59.46;99882.91;5263666;27;20329;-91
2023/01/22 05:23:57;;;;;;;6.87;3.45;;;;;;;5.02;59.46;99888.94;5300039;27;20071;-91
2023/01/22 05:26:23;;;;;;;6.85;3.67;;;;;;;5.14;59.47;99886.25;5263777;27;20106;-91
2023/01/22 05:28:48;;;;;;;7.22;3.97;;;;;;;4.76;59.44;99886.53;5281772;27;20112;-91
2023/01/22 05:31:13;;;;;;;6.45;3.37;;;;;;;4.93;59.44;99891.56;5263869;27;20065;-91
2023/01/22 05:33:39;;;;;;;7.30;4.00;;;;;;;4.94;59.46;99904.44;5264664;27;20448;-91
2023/01/22 05:36:05;;;;;;;6.68;4.07;;;;;;;5.14;59.46;99901.72;5263926;27;20069;-92
2023/01/22 05:38:31;;;;;;;9.98;4.03;;;;;;;4.85;59.44;99908.81;5264232;27;20082;-92
2023/01/22 05:40:56;;;;;;;7.30;4.07;;;;;;;4.79;59.45;99920.03;5263747;27;20077;-92
2023/01/22 05:43:22;;;;;;;5.87;3.53;;;;;;;4.94;59.46;99914.78;5263933;27;20077;-92
2023/01/22 05:45:47;;;;;;;7.53;3.65;;;;;;;5.05;59.46;99914.72;5267275;27;20104;-92
2023/01/22 05:48:13;;;;;;;6.20;4.00;;;;;;;4.85;59.44;99920.00;5267611;27;20065;-91
2023/01/22 05:50:39;;;;;;;8.13;4.35;;;;;;;4.99;59.45;99921.66;5267207;27;20075;-91
2023/01/22 05:53:04;;;;;;;10.95;5.30;;;;;;;5.10;59.47;99928.44;5267421;27;20102;-91
2023/01/22 05:55:30;;;;;;;12.13;6.15;;;;;;;5.11;59.46;99927.56;5285218;27;20354;-91
2023/01/22 05:57:56;;;;;;;12.70;6.60;;;;;;;5.00;59.45;99936.25;5285789;27;20074;-91
2023/01/22 06:00:21;;;;;;;12.65;5.87;;;;;;;5.02;59.46;99937.09;5267282;27;20061;-92
2023/01/22 06:02:47;;;;;;;12.02;6.15;;;;;;;4.99;59.45;99939.72;5285537;27;20061;-91
2023/01/22 06:05:12;;;;;;;11.23;6.93;;;;;;;5.09;59.46;99931.03;5267067;27;20064;-92
2023/01/22 06:07:38;;;;;;;12.30;6.97;;;;;;;5.09;59.47;99938.75;5267235;27;20084;-91
2023/01/22 06:10:03;;;;;;;10.77;6.35;;;;;;;5.05;59.46;99937.94;5267398;27;20377;-91
2023/01/22 06:12:29;;;;;;;10.98;6.47;;;;;;;5.17;59.47;99937.84;5267294;27;20056;-91
2023/01/22 06:14:55;;;;;;;12.55;6.53;;;;;;;5.00;59.45;99944.84;5267235;27;20362;-91
2023/01/22 06:17:20;;;;;;;13.25;6.82;;;;;;;4.96;59.45;99947.44;5267050;27;20064;-91
2023/01/22 06:19:46;;;;;;;10.60;5.82;;;;;;;4.95;59.46;99946.59;5267167;27;20078;-91
2023/01/22 06:22:11;;;;;;;10.55;5.75;;;;;;;4.93;59.45;99950.91;5267289;27;20443;-91
2023/01/22 06:24:37;;;;;;;12.52;5.97;;;;;;;4.78;59.44;99951.84;5285098;27;20067;-92
2023/01/22 06:27:03;;;;;;;10.75;5.72;;;;;;;5.02;59.46;99958.59;5267094;27;20445;-91
2023/01/22 06:29:28;;;;;;;13.57;6.93;;;;;;;5.08;59.45;99955.97;5267034;27;20116;-91
2023/01/22 06:31:55;;;;;;;11.93;5.80;;;;;;;5.18;59.47;99964.50;5267887;27;20106;-91
2023/01/22 06:34:20;;;;;;;14.80;6.25;;;;;;;4.99;59.45;99984.41;5267788;27;20033;-91
2023/01/22 06:36:46;;;;;;;13.05;7.05;;;;;;;5.09;59.46;99990.38;5267984;27;20106;-91
2023/01/22 06:39:11;;;;;;;13.02;7.40;;;;;;;5.22;59.46;99995.47;5301919;26;20053;-91
2023/01/22 06:41:36;;;;;;;12.70;6.68;;;;;;;5.33;59.48;99995.38;5274639;27;20053;-91
2023/01/22 06:44:02;;;;;;;17.65;7.70;;;;;;;5.29;59.47;99988.53;5266939;27;20069;-91
2023/01/22 06:46:27;;;;;;;10.68;6.40;;;;;;;5.27;59.48;99992.84;5285616;27;20111;-91
2023/01/22 06:48:53;;;;;;;11.50;6.37;;;;;;;5.40;59.48;99988.44;5267239;27;20311;-92
2023/01/22 06:51:18;;;;;;;10.63;6.28;;;;;;;5.32;59.48;99991.06;5267246;27;20052;-91
2023/01/22 06:53:44;;;;;;;11.75;5.68;;;;;;;5.28;59.47;99986.81;5267278;27;20132;-91
2023/01/22 06:56:10;;;;;;;11.55;6.22;;;;;;;5.57;59.49;99993.47;5268449;27;20128;-91
2023/01/22 06:58:35;;;;;;;10.82;6.30;;;;;;;5.38;59.48;99995.34;5268203;27;20112;-92
2023/01/22 07:01:02;;;;;;;10.10;5.95;;;;;;;5.38;59.47;100005.66;5268296;27;20067;-91
2023/01/22 07:03:27;;;;;;;11.68;6.70;;;;;;;5.53;59.49;99993.50;5286705;27;20116;-92
2023/01/22 07:05:57;;;;;;;9.30;6.32;;;;;;;5.56;59.49;100002.94;5268148;27;20071;-92
2023/01/22 07:08:23;;;;;;;12.25;6.40;;;;;;;5.67;59.49;100008.88;5268451;27;20052;-91
2023/01/22 07:10:48;;;;;;;10.65;5.90;;;;;;;5.76;59.51;100006.22;5268123;27;20098;-91
2023/01/22 07:13:14;;;;;;;15.35;6.82;;;;;;;5.72;59.49;100014.88;5268158;27;20078;-91
2023/01/22 07:15:40;;;;;;;16.60;6.43;;;;;;;5.65;59.50;100015.78;5268149;27;20081;-91
2023/01/22 07:18:06;;;;;;;12.32;6.45;;;;;;;5.62;59.49;100015.81;5268199;27;20740;-91
2023/01/22 07:20:31;;;;;;;47.22;23.12;;;;;;;5.70;59.50;100015.78;5268065;27;20060;-91
2023/01/22 07:22:58;;;;;;;18.75;9.43;;;;;;;5.75;59.49;100017.44;5268109;27;20451;-91
2023/01/22 07:25:24;;;;;;;12.30;6.57;;;;;;;5.98;59.51;100030.19;5268332;27;20072;-91
2023/01/22 07:27:49;;;;;;;16.92;6.82;;;;;;;5.93;59.51;100041.44;5268089;27;20056;-91
2023/01/22 07:30:15;;;;;;;11.80;6.28;;;;;;;5.92;59.51;100037.16;5268216;27;20056;-92
2023/01/22 07:32:41;;;;;;;14.77;7.43;;;;;;;6.00;59.51;100037.94;5268318;27;20065;-92
2023/01/22 07:35:06;;;;;;;12.93;6.82;;;;;;;5.93;59.51;100047.47;5268123;27;20395;-91
2023/01/22 07:37:32;;;;;;;14.20;6.72;;;;;;;6.00;59.51;100048.25;5268195;27;20420;-92
2023/01/22 07:39:57;;;;;;;10.88;6.20;;;;;;;5.95;59.51;100044.88;5268142;27;20377;-92
2023/01/22 07:42:23;;;;;;;13.25;7.85;;;;;;;6.10;59.52;100039.53;5267926;27;20108;-91
2023/01/22 07:44:48;;;;;;;13.95;7.90;;;;;;;6.10;59.52;100045.56;5268319;27;20073;-92
2023/01/22 07:47:14;;;;;;;20.25;9.68;;;;;;;6.11;59.51;100055.03;5286103;27;20060;-92
2023/01/22 07:49:39;;;;;;;17.05;8.93;;;;;;;6.17;59.52;100055.88;5267902;27;20076;-92
2023/01/22 07:52:05;;;;;;;18.42;9.55;;;;;;;6.09;59.52;100059.38;5268469;27;20109;-91
2023/01/22 07:54:35;;;;;;;14.98;8.40;;;;;;;6.21;59.53;100052.38;5285986;27;20457;-92
2023/01/22 07:57:00;;;;;;;15.07;8.10;;;;;;;6.38;59.53;100059.09;5287107;27;20057;-91
2023/01/22 07:59:26;;;;;;;15.05;7.95;;;;;;;6.46;59.54;100051.25;5267946;27;20124;-92
2023/01/22 08:01:53;;;;;;;12.05;6.65;;;;;;;6.81;59.56;100043.09;5268453;27;20057;-92
2023/01/22 08:04:19;;;;;;;12.90;7.72;;;;;;;6.91;59.56;100047.31;5268183;27;20033;-92
2023/01/22 08:06:44;;;;;;;15.32;7.32;;;;;;;6.60;59.55;100045.94;5267933;27;20393;-91
2023/01/22 08:09:09;;;;;;;15.63;8.43;;;;;;;6.83;59.55;100046.50;5268155;27;20445;-92
2023/01/22 08:11:35;;;;;;;14.95;8.45;;;;;;;6.73;59.56;100053.53;5267757;27;20120;-92
2023/01/22 08:14:00;;;;;;;13.98;7.12;;;;;;;6.52;59.54;100066.72;5304533;27;20068;-92
2023/01/22 08:16:26;;;;;;;16.33;7.05;;;;;;;6.84;59.56;100070.66;5267875;27;20104;-92
2023/01/22 08:18:51;;;;;;;8.38;5.37;;;;;;;6.87;59.56;100081.00;5268125;27;20061;-92
2023/01/22 08:21:17;;;;;;;11.40;4.65;;;;;;;6.92;59.56;100085.25;5286214;27;20090;-92
2023/01/22 08:23:42;;;;;;;11.18;5.40;;;;;;;7.08;59.57;100085.88;5267873;27;20441;-93
2023/01/22 08:26:08;;;;;;;10.63;6.28;;;;;;;7.21;59.58;100082.28;5267941;27;20110;-92
2023/01/22 08:28:33;;;;;;;11.27;5.97;;;;;;;7.22;59.58;100072.78;5268189;27;20053;-92
2023/01/22 08:31:00;;;;;;;12.65;5.57;;;;;;;7.31;59.58;100077.81;5268049;27;20061;-92
2023/01/22 08:33:25;;;;;;;13.95;6.12;;;;;;;7.37;59.59;100088.13;5268082;27;20029;-92
2023/01/22 08:35:51;;;;;;;8.50;4.60;;;;;;;7.50;59.60;100091.37;5267821;27;20048;-92
2023/01/22 08:38:16;;;;;;;8.93;4.43;;;;;;;7.62;59.59;100099.00;5270456;27;20105;-92
2023/01/22 08:40:42;;;;;;;8.65;4.22;;;;;;;7.42;59.59;100094.09;5267857;27;20080;-93
2023/01/22 08:43:07;;;;;;;9.25;4.60;;;;;;;7.41;59.59;100097.56;5267896;27;20120;-93
2023/01/22 08:45:33;;;;;;;10.18;5.28;;;;;;;7.41;59.59;100101.87;5268085;27;20108;-92
2023/01/22 08:47:59;;;;;;;10.88;4.37;;;;;;;7.39;59.58;100109.69;5269474;27;20052;-92
2023/01/22 08:50:25;;;;;;;7.97;4.32;;;;;;;7.41;59.59;100115.69;5267503;27;20087;-92
2023/01/22 08:52:50;;;;;;;9.00;4.87;;;;;;;7.33;59.59;100113.22;5267801;27;20044;-92
2023/01/22 08:55:16;;;;;;;7.62;4.18;;;;;;;7.28;59.58;100125.34;5268247;27;20100;-92
2023/01/22 08:57:53;;;;;;;7.05;4.35;;;;;;;7.32;59.58;100126.16;5286299;27;20056;-93
2023/01/22 09:00:20;;;;;;;8.35;4.65;;;;;;;7.21;59.58;100125.44;5271987;27;20108;-92
2023/01/22 09:02:45;;;;;;;8.50;4.53;;;;;;;7.12;59.58;100130.75;5268022;27;20064;-92
2023/01/22 09:05:10;;;;;;;11.15;5.20;;;;;;;7.06;59.57;100142.00;5267640;27;20101;-92
2023/01/22 09:07:36;;;;;;;9.50;5.35;;;;;;;7.20;59.58;100131.50;5267898;27;20092;-92
2023/01/22 09:10:03;;;;;;;9.43;4.43;;;;;;;7.44;59.60;100132.91;5267815;27;20061;-92
2023/01/22 09:12:28;;;;;;;10.48;5.05;;;;;;;7.42;59.59;100134.69;5267998;27;20078;-92
2023/01/22 09:14:54;;;;;;;10.77;5.47;;;;;;;7.64;59.61;100136.09;5285800;27;20064;-93
2023/01/22 09:17:19;;;;;;;9.55;5.20;;;;;;;7.66;59.60;100137.78;5268091;27;20102;-93
2023/01/22 09:19:45;;;;;;;8.63;4.75;;;;;;;7.62;59.61;100137.88;5269309;27;20065;-93
2023/01/22 09:22:10;;;;;;;11.07;5.82;;;;;;;7.58;59.60;100141.38;5267533;27;20064;-93
2023/01/22 09:24:39;;;;;;;9.07;5.12;;;;;;;7.47;59.59;100151.00;5286341;27;20311;-92
2023/01/22 09:27:14;;;;;;;;;;;;;;;;;;;;;
2023/01/22 09:29:40;;;;;;;10.57;6.12;;;;;;;7.54;59.59;100145.72;5288471;27;35548;-93
2023/01/22 09:32:08;;;;;;;12.23;5.78;;;;;;;7.32;59.58;100152.03;5268155;27;20436;-92
2023/01/22 09:34:33;;;;;;;12.43;5.50;;;;;;;7.35;59.59;100157.22;5286647;27;20482;-93
2023/01/22 09:37:01;;;;;;;10.82;5.57;;;;;;;7.40;59.60;100158.00;5268892;27;20107;-93
2023/01/22 09:39:27;;;;;;;13.13;5.50;;;;;;;7.47;59.58;100159.63;5268510;27;20119;-93
2023/01/22 09:41:54;;;;;;;14.75;6.53;;;;;;;7.33;59.59;100161.53;5286293;27;20061;-92
2023/01/22 09:44:37;;;;;;;14.77;7.03;;;;;;;7.52;59.59;100159.56;5285519;27;20065;-91
2023/01/22 09:47:13;;;;;;;13.80;6.97;;;;;;;7.65;59.60;100159.41;5268987;27;20061;-91
2023/01/22 09:49:47;;;;;;;12.55;7.40;;;;;;;7.64;59.60;100168.06;5267554;27;20080;-91
2023/01/22 09:52:15;;;;;;;13.30;7.20;;;;;;;7.68;59.60;100174.03;5286513;27;20099;-92
2023/01/22 09:54:42;;;;;;;16.27;6.95;;;;;;;7.65;59.60;100176.69;5268128;27;20068;-91
2023/01/22 09:57:10;;;;;;;13.82;6.90;;;;;;;7.73;59.61;100161.00;5268097;27;20420;-91
2023/01/22 09:59:43;;;;;;;14.57;6.80;;;;;;;7.64;59.61;100164.59;5267610;27;20064;-91
2023/01/22 10:02:33;;;;;;;13.88;6.40;;;;;;;7.75;59.61;100167.88;5286801;27;20069;-92
2023/01/22 10:05:04;;;;;;;;;;;;;;;7.67;59.60;100172.31;5304019;27;20412;-91
2023/01/22 10:07:37;;;;;;;13.98;6.22;;;;;;;7.68;59.60;100159.34;5285689;27;19955;-94
2023/01/22 10:10:20;;;;;;;13.15;6.35;;;;;;;7.72;59.61;100170.53;5267674;27;20068;-90
2023/01/22 10:13:00;;;;;;;14.55;6.47;;;;;;;7.85;59.62;100177.25;5268919;27;20132;-93
2023/01/22 10:15:25;;;;;;;15.95;6.82;;;;;;;7.83;59.61;100165.22;5271575;27;20426;-91
2023/01/22 10:17:54;;;;;;;12.82;6.82;;;;;;;7.76;59.61;100168.75;5267758;27;20048;-91
2023/01/22 10:20:19;;;;;;;10.82;5.90;;;;;;;7.86;59.62;100167.75;5267932;27;20061;-92
2023/01/22 10:22:47;;;;;;;11.18;5.35;;;;;;;8.07;59.63;100172.63;5267460;27;20107;-91
2023/01/22 10:25:13;;;;;;;13.55;6.55;;;;;;;8.07;59.62;100171.78;5268109;27;20072;-92
2023/01/22 10:27:39;;;;;;;13.40;5.85;;;;;;;8.00;59.63;100166.66;5267379;27;20041;-92
2023/01/22 10:30:16;;;;;;;13.27;7.32;;;;;;;8.21;59.63;100170.66;5268082;27;20103;-92
2023/01/22 10:32:41;;;;;;;15.25;7.75;;;;;;;8.20;59.63;100175.87;5286183;27;20048;-91
2023/01/22 10:35:10;;;;;;;48.75;38.63;;;;;;;8.45;59.65;100173.78;5261130;27;129881;-91
2023/01/22 10:37:43;;;;;;;17.25;11.60;;;;;;;8.46;59.65;100178.94;5304866;27;20048;-91
2023/01/22 10:40:25;;;;;;;14.70;8.02;;;;;;;8.52;59.66;100180.59;5268651;27;20074;-92
2023/01/22 10:43:10;;;;;;;50.63;21.50;;;;;;;8.71;59.66;100174.19;5287370;27;20756;-91
2023/01/22 10:45:36;;;;;;;14.85;7.47;;;;;;;8.70;59.66;100175.06;5269590;27;20060;-93
2023/01/22 10:48:10;;;;;;;10.52;6.12;;;;;;;8.66;59.66;100175.16;5268562;27;20098;-92
2023/01/22 10:50:36;;;;;;;12.65;6.37;;;;;;;8.56;59.65;100175.31;5269216;27;20061;-91
2023/01/22 10:53:01;;;;;;;17.48;7.22;;;;;;;8.28;59.64;100176.59;5268106;27;20511;-92
2023/01/22 10:55:31;;;;;;;11.90;6.18;;;;;;;8.28;59.64;100181.78;5271719;27;20141;-92
2023/01/22 10:58:04;;;;;;;11.07;6.55;;;;;;;8.29;59.63;100183.53;5269143;27;20025;-92
2023/01/22 11:00:34;;;;;;;12.23;6.30;;;;;;;8.17;59.63;100192.34;5268370;27;20087;-92
2023/01/22 11:03:02;;;;;;;11.95;5.93;;;;;;;8.16;59.63;100192.38;5268377;27;20143;-92
2023/01/22 11:05:32;;;;;;;14.93;7.05;;;;;;;8.07;59.63;100188.19;5268839;27;20071;-92
2023/01/22 11:07:58;;;;;;;;;;;;;;;8.01;59.63;100196.03;5270593;27;20044;-92
2023/01/22 11:10:31;;;;;;;14.30;6.60;;;;;;;8.02;59.62;100196.00;5306441;27;20018;-93
2023/01/22 11:13:02;;;;;;;13.32;7.07;;;;;;;7.99;59.63;100190.00;5268947;27;20064;-93
2023/01/22 11:15:55;;;;;;;12.00;5.72;;;;;;;7.97;59.62;100194.38;5269219;27;20087;-92
2023/01/22 11:18:37;;;;;;;12.32;6.18;;;;;;;8.08;59.63;100191.62;5288687;27;20151;-92
2023/01/22 11:21:11;;;;;;;11.82;6.60;;;;;;;7.91;59.61;100191.88;5286315;27;20036;-92
2023/01/22 11:23:39;;;;;;;12.90;6.12;;;;;;;7.97;59.62;100194.38;5269212;27;20126;-92
2023/01/22 11:26:35;;;;;;;13.62;6.93;;;;;;;8.01;59.63;100189.09;5304808;27;20783;-92
2023/01/22 11:29:28;;;;;;;13.52;6.80;;;;;;;8.12;59.63;100194.16;5295297;27;20059;-90
2023/01/22 11:32:32;;;;;;;13.68;7.10;;;;;;;8.07;59.62;100200.28;5268869;27;20074;-92
2023/01/22 11:35:24;;;;;;;10.63;6.20;;;;;;;8.15;59.64;100206.22;5195291;27;20069;-92
2023/01/22 11:37:52;;;;;;;14.63;6.97;;;;;;;8.04;59.62;100203.75;5269779;27;20064;-92
2023/01/22 11:40:31;;;;;;;12.68;6.20;;;;;;;8.16;59.63;100213.09;5303534;27;20075;-92
2023/01/22 11:43:01;;;;;;;11.27;6.90;;;;;;;8.12;59.63;100222.69;5285872;27;20064;-92
2023/01/22 11:45:43;;;;;;;15.00;8.05;;;;;;;8.11;59.63;100212.31;5281894;27;20452;-92